sensor_id;sensor_type;location;lat;lon;timestamp;pressure;altitude;pressure_sealevel;temperature
15845;BMP180;50807;52.436;13.346;2023-01-23T00:00:30;102954.00;;;7.60
15845;BMP180;50807;52.436;13.346;2023-01-23T00:01:05;102957.00;;;7.60
15845;BMP180;50807;52.436;13.346;2023-01-23T00:01:36;102948.00;;;7.60
15845;BMP180;50807;52.436;13.346;2023-01-23T00:02:08;102960.00;;;7.60
15845;BMP180;50807;52.436;13.346;2023-01-23T00:02:39;102957.00;;;7.70
15845;BMP180;50807;52.436;13.346;2023-01-23T00:03:10;102956.00;;;7.60
15845;BMP180;50807;52.436;13.346;2023-01-23T00:03:42;102957.00;;;7.70
15845;BMP180;50807;52.436;13.346;2023-01-23T00:04:13;102952.00;;;7.70
15845;BMP180;50807;52.436;13.346;2023-01-23T00:04:44;102947.00;;;7.70
15845;BMP180;50807;52.436;13.346;2023-01-23T00:05:15;102946.00;;;7.70
15845;BMP180;50807;52.436;13.346;2023-01-23T00:05:56;102960.00;;;7.60
15845;BMP180;50807;52.436;13.346;2023-01-23T00:06:27;102951.00;;;7.60
15845;BMP180;50807;52.436;13.346;2023-01-23T00:06:59;102957.00;;;7.60
15845;BMP180;50807;52.436;13.346;2023-01-23T00:07:30;102963.00;;;7.70
15845;BMP180;50807;52.436;13.346;2023-01-23T00:08:00;102961.00;;;7.70
15845;BMP180;50807;52.436;13.346;2023-01-23T00:08:34;102964.00;;;7.70
15845;BMP180;50807;52.436;13.346;2023-01-23T00:09:05;102966.00;;;7.60
15845;BMP180;50807;52.436;13.346;2023-01-23T00:09:36;102957.00;;;7.60
15845;BMP180;50807;52.436;13.346;2023-01-23T00:10:10;102956.00;;;7.70
15845;BMP180;50807;52.436;13.346;2023-01-23T00:10:41;102953.00;;;7.70
15845;BMP180;50807;52.436;13.346;2023-01-23T00:11:15;102957.00;;;7.60
15845;BMP180;50807;52.436;13.346;2023-01-23T00:11:47;102957.00;;;7.70
15845;BMP180;50807;52.436;13.346;2023-01-23T00:12:18;102954.00;;;7.70
15845;BMP180;50807;52.436;13.346;2023-01-23T00:12:49;102953.00;;;7.70
15845;BMP180;50807;52.436;13.346;2023-01-23T00:13:23;102965.00;;;7.70
15845;BMP180;50807;52.436;13.346;2023-01-23T00:13:56;102956.00;;;7.70
15845;BMP180;50807;52.436;13.346;2023-01-23T00:14:27;102955.00;;;7.70
15845;BMP180;50807;52.436;13.346;2023-01-23T00:14:58;102952.00;;;7.70
15845;BMP180;50807;52.436;13.346;2023-01-23T00:15:29;102960.00;;;7.70
15845;BMP180;50807;52.436;13.346;2023-01-23T00:16:04;102955.00;;;7.60
15845;BMP180;50807;52.436;13.346;2023-01-23T00:16:35;102961.00;;;7.70
15845;BMP180;50807;52.436;13.346;2023-01-23T00:17:07;102954.00;;;7.70
15845;BMP180;50807;52.436;13.346;2023-01-23T00:17:38;102952.00;;;7.70
15845;BMP180;50807;52.436;13.346;2023-01-23T00:18:10;102959.00;;;7.70
15845;BMP180;50807;52.436;13.346;2023-01-23T00:18:43;102959.00;;;7.70
15845;BMP180;50807;52.436;13.346;2023-01-23T00:19:14;102968.00;;;7.70
15845;BMP180;50807;52.436;13.346;2023-01-23T00:19:44;102967.00;;;7.70
15845;BMP180;50807;52.436;13.346;2023-01-23T00:20:16;102962.00;;;7.60
15845;BMP180;50807;52.436;13.346;2023-01-23T00:20:47;102966.00;;;7.70
15845;BMP180;50807;52.436;13.346;2023-01-23T00:21:21;102966.00;;;7.70
15845;BMP180;50807;52.436;13.346;2023-01-23T00:21:53;102965.00;;;7.70
15845;BMP180;50807;52.436;13.346;2023-01-23T00:22:24;102968.00;;;7.70
15845;BMP180;50807;52.436;13.346;2023-01-23T00:22:55;102963.00;;;7.70
15845;BMP180;50807;52.436;13.346;2023-01-23T00:23:26;102960.00;;;7.70
15845;BMP180;50807;52.436;13.346;2023-01-23T00:23:59;102960.00;;;7.70
15845;BMP180;50807;52.436;13.346;2023-01-23T00:24:31;102968.00;;;7.70
15845;BMP180;50807;52.436;13.346;2023-01-23T00:25:03;102964.00;;;7.70
15845;BMP180;50807;52.436;13.346;2023-01-23T00:25:35;102962.00;;;7.70
15845;BMP180;50807;52.436;13.346;2023-01-23T00:26:10;102954.00;;;7.70
15845;BMP180;50807;52.436;13.346;2023-01-23T00:26:41;102960.00;;;7.70
15845;BMP180;50807;52.436;13.346;2023-01-23T00:27:13;102975.00;;;7.70
15845;BMP180;50807;52.436;13.346;2023-01-23T00:27:44;102954.00;;;7.70
15845;BMP180;50807;52.436;13.346;2023-01-23T00:28:14;102961.00;;;7.70
15845;BMP180;50807;52.436;13.346;2023-01-23T00:28:46;102959.00;;;7.70
15845;BMP180;50807;52.436;13.346;2023-01-23T00:29:19;102955.00;;;7.70
15845;BMP180;50807;52.436;13.346;2023-01-23T00:29:51;102957.00;;;7.70
15845;BMP180;50807;52.436;13.346;2023-01-23T00:30:22;102958.00;;;7.70
15845;BMP180;50807;52.436;13.346;2023-01-23T00:31:02;102957.00;;;7.60
15845;BMP180;50807;52.436;13.346;2023-01-23T00:31:36;102950.00;;;7.60
15845;BMP180;50807;52.436;13.346;2023-01-23T00:32:07;102960.00;;;7.60
15845;BMP180;50807;52.436;13.346;2023-01-23T00:32:39;102953.00;;;7.60
15845;BMP180;50807;52.436;13.346;2023-01-23T00:33:09;102959.00;;;7.60
15845;BMP180;50807;52.436;13.346;2023-01-23T00:33:42;102960.00;;;7.60
15845;BMP180;50807;52.436;13.346;2023-01-23T00:34:14;102952.00;;;7.70
15845;BMP180;50807;52.436;13.346;2023-01-23T00:34:47;102956.00;;;7.60
15845;BMP180;50807;52.436;13.346;2023-01-23T00:35:18;102957.00;;;7.60
15845;BMP180;50807;52.436;13.346;2023-01-23T00:35:48;102955.00;;;7.60
15845;BMP180;50807;52.436;13.346;2023-01-23T00:36:19;102951.00;;;7.70
15845;BMP180;50807;52.436;13.346;2023-01-23T00:36:51;102956.00;;;7.60
15845;BMP180;50807;52.436;13.346;2023-01-23T00:37:21;102952.00;;;7.60
15845;BMP180;50807;52.436;13.346;2023-01-23T00:37:52;102948.00;;;7.60
15845;BMP180;50807;52.436;13.346;2023-01-23T00:38:24;102951.00;;;7.60
15845;BMP180;50807;52.436;13.346;2023-01-23T00:38:55;102952.00;;;7.70
15845;BMP180;50807;52.436;13.346;2023-01-23T00:39:26;102957.00;;;7.70
15845;BMP180;50807;52.436;13.346;2023-01-23T00:39:58;102954.00;;;7.60
15845;BMP180;50807;52.436;13.346;2023-01-23T00:40:29;102942.00;;;7.70
15845;BMP180;50807;52.436;13.346;2023-01-23T00:41:00;102951.00;;;7.70
15845;BMP180;50807;52.436;13.346;2023-01-23T00:41:31;102948.00;;;7.70
15845;BMP180;50807;52.436;13.346;2023-01-23T00:42:03;102948.00;;;7.70
15845;BMP180;50807;52.436;13.346;2023-01-23T00:42:34;102957.00;;;7.70
15845;BMP180;50807;52.436;13.346;2023-01-23T00:43:05;102956.00;;;7.70
15845;BMP180;50807;52.436;13.346;2023-01-23T00:43:37;102953.00;;;7.70
15845;BMP180;50807;52.436;13.346;2023-01-23T00:44:08;102955.00;;;7.70
15845;BMP180;50807;52.436;13.346;2023-01-23T00:44:40;102957.00;;;7.70
15845;BMP180;50807;52.436;13.346;2023-01-23T00:45:11;102956.00;;;7.70
15845;BMP180;50807;52.436;13.346;2023-01-23T00:45:43;102960.00;;;7.70
15845;BMP180;50807;52.436;13.346;2023-01-23T00:46:13;102951.00;;;7.70
15845;BMP180;50807;52.436;13.346;2023-01-23T00:46:46;102963.00;;;7.70
15845;BMP180;50807;52.436;13.346;2023-01-23T00:47:17;102954.00;;;7.70
15845;BMP180;50807;52.436;13.346;2023-01-23T00:47:48;102958.00;;;7.70
15845;BMP180;50807;52.436;13.346;2023-01-23T00:48:20;102955.00;;;7.70
15845;BMP180;50807;52.436;13.346;2023-01-23T00:48:51;102957.00;;;7.70
15845;BMP180;50807;52.436;13.346;2023-01-23T00:49:22;102961.00;;;7.70
15845;BMP180;50807;52.436;13.346;2023-01-23T00:49:53;102957.00;;;7.70
15845;BMP180;50807;52.436;13.346;2023-01-23T00:50:26;102956.00;;;7.70
15845;BMP180;50807;52.436;13.346;2023-01-23T00:50:57;102960.00;;;7.70
15845;BMP180;50807;52.436;13.346;2023-01-23T00:51:28;102958.00;;;7.70
15845;BMP180;50807;52.436;13.346;2023-01-23T00:52:00;102959.00;;;7.70
15845;BMP180;50807;52.436;13.346;2023-01-23T00:52:31;102961.00;;;7.70
15845;BMP180;50807;52.436;13.346;2023-01-23T00:53:01;102969.00;;;7.70
15845;BMP180;50807;52.436;13.346;2023-01-23T00:53:32;102960.00;;;7.70
15845;BMP180;50807;52.436;13.346;2023-01-23T00:54:04;102966.00;;;7.70
15845;BMP180;50807;52.436;13.346;2023-01-23T00:54:35;102963.00;;;7.70
15845;BMP180;50807;52.436;13.346;2023-01-23T00:55:09;102960.00;;;7.70
15845;BMP180;50807;52.436;13.346;2023-01-23T00:55:41;102948.00;;;7.70
15845;BMP180;50807;52.436;13.346;2023-01-23T00:56:12;102970.00;;;7.70
15845;BMP180;50807;52.436;13.346;2023-01-23T00:56:43;102971.00;;;7.70
15845;BMP180;50807;52.436;13.346;2023-01-23T00:57:15;102968.00;;;7.70
15845;BMP180;50807;52.436;13.346;2023-01-23T00:57:45;102947.00;;;7.70
15845;BMP180;50807;52.436;13.346;2023-01-23T00:58:16;102968.00;;;7.70
15845;BMP180;50807;52.436;13.346;2023-01-23T00:58:48;102977.00;;;7.70
15845;BMP180;50807;52.436;13.346;2023-01-23T00:59:19;102972.00;;;7.70
15845;BMP180;50807;52.436;13.346;2023-01-23T00:59:51;102974.00;;;7.70
15845;BMP180;50807;52.436;13.346;2023-01-23T01:00:23;102977.00;;;7.70
15845;BMP180;50807;52.436;13.346;2023-01-23T01:00:54;102977.00;;;7.70
15845;BMP180;50807;52.436;13.346;2023-01-23T01:01:25;102976.00;;;7.70
15845;BMP180;50807;52.436;13.346;2023-01-23T01:01:58;102974.00;;;7.70
15845;BMP180;50807;52.436;13.346;2023-01-23T01:02:29;102970.00;;;7.70
15845;BMP180;50807;52.436;13.346;2023-01-23T01:03:00;102936.00;;;7.70
15845;BMP180;50807;52.436;13.346;2023-01-23T01:03:32;102984.00;;;7.70
15845;BMP180;50807;52.436;13.346;2023-01-23T01:04:03;102982.00;;;7.70
15845;BMP180;50807;52.436;13.346;2023-01-23T01:04:35;102975.00;;;7.70
15845;BMP180;50807;52.436;13.346;2023-01-23T01:05:06;102977.00;;;7.70
15845;BMP180;50807;52.436;13.346;2023-01-23T01:05:38;102977.00;;;7.70
15845;BMP180;50807;52.436;13.346;2023-01-23T01:06:10;102976.00;;;7.70
15845;BMP180;50807;52.436;13.346;2023-01-23T01:06:42;102975.00;;;7.70
15845;BMP180;50807;52.436;13.346;2023-01-23T01:07:12;102980.00;;;7.70
15845;BMP180;50807;52.436;13.346;2023-01-23T01:07:44;102977.00;;;7.70
15845;BMP180;50807;52.436;13.346;2023-01-23T01:08:15;102981.00;;;7.70
15845;BMP180;50807;52.436;13.346;2023-01-23T01:08:46;102975.00;;;7.70
15845;BMP180;50807;52.436;13.346;2023-01-23T01:09:18;102976.00;;;7.70
15845;BMP180;50807;52.436;13.346;2023-01-23T01:09:49;102981.00;;;7.70
15845;BMP180;50807;52.436;13.346;2023-01-23T01:10:20;102980.00;;;7.70
15845;BMP180;50807;52.436;13.346;2023-01-23T01:10:51;102981.00;;;7.70
15845;BMP180;50807;52.436;13.346;2023-01-23T01:11:23;102981.00;;;7.70
15845;BMP180;50807;52.436;13.346;2023-01-23T01:11:53;102985.00;;;7.70
15845;BMP180;50807;52.436;13.346;2023-01-23T01:12:24;102987.00;;;7.70
15845;BMP180;50807;52.436;13.346;2023-01-23T01:12:58;102967.00;;;7.70
15845;BMP180;50807;52.436;13.346;2023-01-23T01:13:29;102987.00;;;7.70
15845;BMP180;50807;52.436;13.346;2023-01-23T01:14:00;102992.00;;;7.70
15845;BMP180;50807;52.436;13.346;2023-01-23T01:14:32;102990.00;;;7.70
15845;BMP180;50807;52.436;13.346;2023-01-23T01:15:07;102985.00;;;7.70
15845;BMP180;50807;52.436;13.346;2023-01-23T01:15:38;102993.00;;;7.70
15845;BMP180;50807;52.436;13.346;2023-01-23T01:16:10;102989.00;;;7.70
15845;BMP180;50807;52.436;13.346;2023-01-23T01:16:42;102988.00;;;7.70
15845;BMP180;50807;52.436;13.346;2023-01-23T01:17:15;102996.00;;;7.70
15845;BMP180;50807;52.436;13.346;2023-01-23T01:17:46;102991.00;;;7.70
15845;BMP180;50807;52.436;13.346;2023-01-23T01:18:18;102975.00;;;7.70
15845;BMP180;50807;52.436;13.346;2023-01-23T01:18:49;102991.00;;;7.70
15845;BMP180;50807;52.436;13.346;2023-01-23T01:19:21;102990.00;;;7.80
15845;BMP180;50807;52.436;13.346;2023-01-23T01:19:52;102993.00;;;7.80
15845;BMP180;50807;52.436;13.346;2023-01-23T01:20:25;102986.00;;;7.70
15845;BMP180;50807;52.436;13.346;2023-01-23T01:20:57;102992.00;;;7.70
15845;BMP180;50807;52.436;13.346;2023-01-23T01:21:29;102988.00;;;7.70
15845;BMP180;50807;52.436;13.346;2023-01-23T01:22:00;102988.00;;;7.70
15845;BMP180;50807;52.436;13.346;2023-01-23T01:22:31;102980.00;;;7.70
15845;BMP180;50807;52.436;13.346;2023-01-23T01:23:03;102988.00;;;7.80
15845;BMP180;50807;52.436;13.346;2023-01-23T01:23:34;102982.00;;;7.70
15845;BMP180;50807;52.436;13.346;2023-01-23T01:24:05;102985.00;;;7.80
15845;BMP180;50807;52.436;13.346;2023-01-23T01:24:40;102984.00;;;7.70
15845;BMP180;50807;52.436;13.346;2023-01-23T01:25:11;102983.00;;;7.70
15845;BMP180;50807;52.436;13.346;2023-01-23T01:25:42;102980.00;;;7.80
15845;BMP180;50807;52.436;13.346;2023-01-23T01:26:13;102983.00;;;7.80
15845;BMP180;50807;52.436;13.346;2023-01-23T01:26:44;102982.00;;;7.80
15845;BMP180;50807;52.436;13.346;2023-01-23T01:27:15;102985.00;;;7.80
15845;BMP180;50807;52.436;13.346;2023-01-23T01:27:47;102983.00;;;7.80
15845;BMP180;50807;52.436;13.346;2023-01-23T01:28:18;102989.00;;;7.80
15845;BMP180;50807;52.436;13.346;2023-01-23T01:28:49;102989.00;;;7.80
15845;BMP180;50807;52.436;13.346;2023-01-23T01:29:19;102992.00;;;7.80
15845;BMP180;50807;52.436;13.346;2023-01-23T01:29:51;102988.00;;;7.80
15845;BMP180;50807;52.436;13.346;2023-01-23T01:30:24;102997.00;;;7.80
15845;BMP180;50807;52.436;13.346;2023-01-23T01:30:57;102997.00;;;7.80
15845;BMP180;50807;52.436;13.346;2023-01-23T01:31:29;102993.00;;;7.80
15845;BMP180;50807;52.436;13.346;2023-01-23T01:31:59;102999.00;;;7.80
15845;BMP180;50807;52.436;13.346;2023-01-23T01:32:30;103002.00;;;7.80
15845;BMP180;50807;52.436;13.346;2023-01-23T01:33:01;103004.00;;;7.80
15845;BMP180;50807;52.436;13.346;2023-01-23T01:33:33;102993.00;;;7.80
15845;BMP180;50807;52.436;13.346;2023-01-23T01:34:04;102995.00;;;7.80
15845;BMP180;50807;52.436;13.346;2023-01-23T01:34:35;103000.00;;;7.80
15845;BMP180;50807;52.436;13.346;2023-01-23T01:35:08;102999.00;;;7.80
15845;BMP180;50807;52.436;13.346;2023-01-23T01:35:39;103007.00;;;7.80
15845;BMP180;50807;52.436;13.346;2023-01-23T01:36:12;103001.00;;;7.80
15845;BMP180;50807;52.436;13.346;2023-01-23T01:36:44;103001.00;;;7.80
15845;BMP180;50807;52.436;13.346;2023-01-23T01:37:14;103000.00;;;7.80
15845;BMP180;50807;52.436;13.346;2023-01-23T01:37:46;102972.00;;;7.80
15845;BMP180;50807;52.436;13.346;2023-01-23T01:38:18;103002.00;;;7.80
15845;BMP180;50807;52.436;13.346;2023-01-23T01:38:49;103007.00;;;7.80
15845;BMP180;50807;52.436;13.346;2023-01-23T01:39:20;103002.00;;;7.80
15845;BMP180;50807;52.436;13.346;2023-01-23T01:39:52;102998.00;;;7.70
15845;BMP180;50807;52.436;13.346;2023-01-23T01:40:27;103005.00;;;7.70
15845;BMP180;50807;52.436;13.346;2023-01-23T01:40:58;103000.00;;;7.70
15845;BMP180;50807;52.436;13.346;2023-01-23T01:41:29;103001.00;;;7.70
15845;BMP180;50807;52.436;13.346;2023-01-23T01:42:01;103001.00;;;7.70
15845;BMP180;50807;52.436;13.346;2023-01-23T01:42:38;103008.00;;;7.70
15845;BMP180;50807;52.436;13.346;2023-01-23T01:43:19;103008.00;;;7.60
15845;BMP180;50807;52.436;13.346;2023-01-23T01:43:51;103013.00;;;7.60
15845;BMP180;50807;52.436;13.346;2023-01-23T01:44:26;103011.00;;;7.60
15845;BMP180;50807;52.436;13.346;2023-01-23T01:44:59;103013.00;;;7.60
15845;BMP180;50807;52.436;13.346;2023-01-23T01:46:17;103009.00;;;7.40
15845;BMP180;50807;52.436;13.346;2023-01-23T01:46:49;103014.00;;;7.50
15845;BMP180;50807;52.436;13.346;2023-01-23T01:47:21;103009.00;;;7.60
15845;BMP180;50807;52.436;13.346;2023-01-23T01:47:52;103017.00;;;7.60
15845;BMP180;50807;52.436;13.346;2023-01-23T01:48:26;103018.00;;;7.60
15845;BMP180;50807;52.436;13.346;2023-01-23T01:49:07;102993.00;;;7.50
15845;BMP180;50807;52.436;13.346;2023-01-23T01:49:39;103015.00;;;7.60
15845;BMP180;50807;52.436;13.346;2023-01-23T01:50:10;103013.00;;;7.60
15845;BMP180;50807;52.436;13.346;2023-01-23T01:50:43;103009.00;;;7.60
15845;BMP180;50807;52.436;13.346;2023-01-23T01:51:23;103022.00;;;7.50
15845;BMP180;50807;52.436;13.346;2023-01-23T01:52:02;103007.00;;;7.50
15845;BMP180;50807;52.436;13.346;2023-01-23T01:52:34;103019.00;;;7.50
15845;BMP180;50807;52.436;13.346;2023-01-23T01:53:05;103010.00;;;7.50
15845;BMP180;50807;52.436;13.346;2023-01-23T01:53:38;103011.00;;;7.60
15845;BMP180;50807;52.436;13.346;2023-01-23T01:54:18;103012.00;;;7.50
15845;BMP180;50807;52.436;13.346;2023-01-23T01:54:54;103009.00;;;7.60
15845;BMP180;50807;52.436;13.346;2023-01-23T01:55:25;103020.00;;;7.60
15845;BMP180;50807;52.436;13.346;2023-01-23T01:55:57;103021.00;;;7.60
15845;BMP180;50807;52.436;13.346;2023-01-23T01:56:31;103017.00;;;7.60
15845;BMP180;50807;52.436;13.346;2023-01-23T01:57:10;103014.00;;;7.50
15845;BMP180;50807;52.436;13.346;2023-01-23T01:57:44;103016.00;;;7.60
15845;BMP180;50807;52.436;13.346;2023-01-23T01:58:18;103024.00;;;7.60
15845;BMP180;50807;52.436;13.346;2023-01-23T01:58:51;103017.00;;;7.60
15845;BMP180;50807;52.436;13.346;2023-01-23T01:59:25;103013.00;;;7.60
15845;BMP180;50807;52.436;13.346;2023-01-23T02:00:03;103017.00;;;7.60
15845;BMP180;50807;52.436;13.346;2023-01-23T02:00:35;103024.00;;;7.60
15845;BMP180;50807;52.436;13.346;2023-01-23T02:01:06;103014.00;;;7.60
15845;BMP180;50807;52.436;13.346;2023-01-23T02:01:41;103025.00;;;7.60
15845;BMP180;50807;52.436;13.346;2023-01-23T02:02:19;103022.00;;;7.50
15845;BMP180;50807;52.436;13.346;2023-01-23T02:02:55;103029.00;;;7.50
15845;BMP180;50807;52.436;13.346;2023-01-23T02:03:28;103019.00;;;7.60
15845;BMP180;50807;52.436;13.346;2023-01-23T02:04:00;103022.00;;;7.60
15845;BMP180;50807;52.436;13.346;2023-01-23T02:04:35;103015.00;;;7.60
15845;BMP180;50807;52.436;13.346;2023-01-23T02:05:11;103030.00;;;7.60
15845;BMP180;50807;52.436;13.346;2023-01-23T02:05:46;103026.00;;;7.60
15845;BMP180;50807;52.436;13.346;2023-01-23T02:06:18;103017.00;;;7.60
15845;BMP180;50807;52.436;13.346;2023-01-23T02:06:51;103023.00;;;7.60
15845;BMP180;50807;52.436;13.346;2023-01-23T02:07:33;103008.00;;;7.60
15845;BMP180;50807;52.436;13.346;2023-01-23T02:08:12;103018.00;;;7.50
15845;BMP180;50807;52.436;13.346;2023-01-23T02:08:55;103027.00;;;7.50
15845;BMP180;50807;52.436;13.346;2023-01-23T02:09:31;103015.00;;;7.60
15845;BMP180;50807;52.436;13.346;2023-01-23T02:10:05;103022.00;;;7.60
15845;BMP180;50807;52.436;13.346;2023-01-23T02:10:37;103013.00;;;7.60
15845;BMP180;50807;52.436;13.346;2023-01-23T02:11:10;103017.00;;;7.60
15845;BMP180;50807;52.436;13.346;2023-01-23T02:11:41;103023.00;;;7.60
15845;BMP180;50807;52.436;13.346;2023-01-23T02:12:13;103017.00;;;7.70
15845;BMP180;50807;52.436;13.346;2023-01-23T02:12:45;103002.00;;;7.60
15845;BMP180;50807;52.436;13.346;2023-01-23T02:13:24;103021.00;;;7.60
15845;BMP180;50807;52.436;13.346;2023-01-23T02:13:59;103019.00;;;7.60
15845;BMP180;50807;52.436;13.346;2023-01-23T02:14:30;103023.00;;;7.60
15845;BMP180;50807;52.436;13.346;2023-01-23T02:15:05;103015.00;;;7.60
15845;BMP180;50807;52.436;13.346;2023-01-23T02:15:38;103023.00;;;7.60
15845;BMP180;50807;52.436;13.346;2023-01-23T02:16:12;103017.00;;;7.60
15845;BMP180;50807;52.436;13.346;2023-01-23T02:16:46;103022.00;;;7.60
15845;BMP180;50807;52.436;13.346;2023-01-23T02:17:20;103016.00;;;7.60
15845;BMP180;50807;52.436;13.346;2023-01-23T02:17:53;103017.00;;;7.60
15845;BMP180;50807;52.436;13.346;2023-01-23T02:18:27;103019.00;;;7.60
15845;BMP180;50807;52.436;13.346;2023-01-23T02:19:03;103018.00;;;7.50
15845;BMP180;50807;52.436;13.346;2023-01-23T02:19:48;103018.00;;;7.50
15845;BMP180;50807;52.436;13.346;2023-01-23T02:20:25;103022.00;;;7.50
15845;BMP180;50807;52.436;13.346;2023-01-23T02:21:03;103018.00;;;7.50
15845;BMP180;50807;52.436;13.346;2023-01-23T02:21:38;103019.00;;;7.50
15845;BMP180;50807;52.436;13.346;2023-01-23T02:22:25;103029.00;;;7.40
15845;BMP180;50807;52.436;13.346;2023-01-23T02:23:12;103021.00;;;7.30
15845;BMP180;50807;52.436;13.346;2023-01-23T02:24:04;103023.00;;;7.30
15845;BMP180;50807;52.436;13.346;2023-01-23T02:24:46;103023.00;;;7.30
15845;BMP180;50807;52.436;13.346;2023-01-23T02:25:38;103019.00;;;7.30
15845;BMP180;50807;52.436;13.346;2023-01-23T02:26:17;103015.00;;;7.30
15845;BMP180;50807;52.436;13.346;2023-01-23T02:26:49;103016.00;;;7.40
15845;BMP180;50807;52.436;13.346;2023-01-23T02:27:20;103016.00;;;7.50
15845;BMP180;50807;52.436;13.346;2023-01-23T02:27:51;103015.00;;;7.50
15845;BMP180;50807;52.436;13.346;2023-01-23T02:28:35;103010.00;;;7.40
15845;BMP180;50807;52.436;13.346;2023-01-23T02:29:07;103016.00;;;7.50
15845;BMP180;50807;52.436;13.346;2023-01-23T02:29:41;103023.00;;;7.40
15845;BMP180;50807;52.436;13.346;2023-01-23T02:30:14;103017.00;;;7.50
15845;BMP180;50807;52.436;13.346;2023-01-23T02:30:45;103013.00;;;7.50
15845;BMP180;50807;52.436;13.346;2023-01-23T02:31:18;103013.00;;;7.50
15845;BMP180;50807;52.436;13.346;2023-01-23T02:31:49;103015.00;;;7.50
15845;BMP180;50807;52.436;13.346;2023-01-23T02:32:22;103013.00;;;7.50
15845;BMP180;50807;52.436;13.346;2023-01-23T02:33:06;103016.00;;;7.40
15845;BMP180;50807;52.436;13.346;2023-01-23T02:33:46;103008.00;;;7.40
15845;BMP180;50807;52.436;13.346;2023-01-23T02:34:18;103018.00;;;7.40
15845;BMP180;50807;52.436;13.346;2023-01-23T02:34:56;103023.00;;;7.40
15845;BMP180;50807;52.436;13.346;2023-01-23T02:35:30;103022.00;;;7.50
15845;BMP180;50807;52.436;13.346;2023-01-23T02:36:03;103016.00;;;7.50
15845;BMP180;50807;52.436;13.346;2023-01-23T02:36:34;103023.00;;;7.50
15845;BMP180;50807;52.436;13.346;2023-01-23T02:37:07;103000.00;;;7.50
15845;BMP180;50807;52.436;13.346;2023-01-23T02:37:42;103016.00;;;7.50
15845;BMP180;50807;52.436;13.346;2023-01-23T02:38:19;103016.00;;;7.50
15845;BMP180;50807;52.436;13.346;2023-01-23T02:39:04;103020.00;;;7.40
15845;BMP180;50807;52.436;13.346;2023-01-23T02:39:36;103022.00;;;7.50
15845;BMP180;50807;52.436;13.346;2023-01-23T02:40:09;103019.00;;;7.50
15845;BMP180;50807;52.436;13.346;2023-01-23T02:40:41;103027.00;;;7.60
15845;BMP180;50807;52.436;13.346;2023-01-23T02:41:17;103024.00;;;7.50
15845;BMP180;50807;52.436;13.346;2023-01-23T02:41:51;103027.00;;;7.60
15845;BMP180;50807;52.436;13.346;2023-01-23T02:42:24;103031.00;;;7.60
15845;BMP180;50807;52.436;13.346;2023-01-23T02:42:57;103028.00;;;7.60
15845;BMP180;50807;52.436;13.346;2023-01-23T02:43:32;103026.00;;;7.60
15845;BMP180;50807;52.436;13.346;2023-01-23T02:44:12;103032.00;;;7.50
15845;BMP180;50807;52.436;13.346;2023-01-23T02:44:45;103028.00;;;7.60
15845;BMP180;50807;52.436;13.346;2023-01-23T02:45:16;103030.00;;;7.60
15845;BMP180;50807;52.436;13.346;2023-01-23T02:45:47;103034.00;;;7.60
15845;BMP180;50807;52.436;13.346;2023-01-23T02:46:19;103034.00;;;7.60
15845;BMP180;50807;52.436;13.346;2023-01-23T02:46:50;103039.00;;;7.60
15845;BMP180;50807;52.436;13.346;2023-01-23T02:47:21;103041.00;;;7.60
15845;BMP180;50807;52.436;13.346;2023-01-23T02:47:53;103040.00;;;7.60
15845;BMP180;50807;52.436;13.346;2023-01-23T02:48:24;103038.00;;;7.60
15845;BMP180;50807;52.436;13.346;2023-01-23T02:48:55;103033.00;;;7.60
15845;BMP180;50807;52.436;13.346;2023-01-23T02:49:28;103034.00;;;7.60
15845;BMP180;50807;52.436;13.346;2023-01-23T02:49:59;103032.00;;;7.70
15845;BMP180;50807;52.436;13.346;2023-01-23T02:50:29;103036.00;;;7.70
15845;BMP180;50807;52.436;13.346;2023-01-23T02:51:01;103022.00;;;7.70
15845;BMP180;50807;52.436;13.346;2023-01-23T02:51:32;103032.00;;;7.70
15845;BMP180;50807;52.436;13.346;2023-01-23T02:52:03;103039.00;;;7.70
15845;BMP180;50807;52.436;13.346;2023-01-23T02:52:36;103041.00;;;7.70
15845;BMP180;50807;52.436;13.346;2023-01-23T02:53:06;103042.00;;;7.70
15845;BMP180;50807;52.436;13.346;2023-01-23T02:53:37;103041.00;;;7.70
15845;BMP180;50807;52.436;13.346;2023-01-23T02:54:08;103044.00;;;7.70
15845;BMP180;50807;52.436;13.346;2023-01-23T02:54:40;103040.00;;;7.70
15845;BMP180;50807;52.436;13.346;2023-01-23T02:55:11;103038.00;;;7.70
15845;BMP180;50807;52.436;13.346;2023-01-23T02:55:42;103045.00;;;7.70
15845;BMP180;50807;52.436;13.346;2023-01-23T02:56:14;103037.00;;;7.70
15845;BMP180;50807;52.436;13.346;2023-01-23T02:56:46;103052.00;;;7.70
15845;BMP180;50807;52.436;13.346;2023-01-23T02:57:17;103041.00;;;7.70
15845;BMP180;50807;52.436;13.346;2023-01-23T02:57:49;103047.00;;;7.70
15845;BMP180;50807;52.436;13.346;2023-01-23T02:58:19;103045.00;;;7.70
15845;BMP180;50807;52.436;13.346;2023-01-23T02:59:08;103046.00;;;7.70
15845;BMP180;50807;52.436;13.346;2023-01-23T02:59:58;103049.00;;;7.70
15845;BMP180;50807;52.436;13.346;2023-01-23T03:00:46;103056.00;;;7.70
15845;BMP180;50807;52.436;13.346;2023-01-23T03:01:17;103040.00;;;7.70
15845;BMP180;50807;52.436;13.346;2023-01-23T03:01:48;103050.00;;;7.70
15845;BMP180;50807;52.436;13.346;2023-01-23T03:02:20;103051.00;;;7.70
15845;BMP180;50807;52.436;13.346;2023-01-23T03:02:51;103044.00;;;7.70
15845;BMP180;50807;52.436;13.346;2023-01-23T03:03:24;103049.00;;;7.70
15845;BMP180;50807;52.436;13.346;2023-01-23T03:03:55;103042.00;;;7.70
15845;BMP180;50807;52.436;13.346;2023-01-23T03:04:26;103052.00;;;7.80
15845;BMP180;50807;52.436;13.346;2023-01-23T03:04:58;103047.00;;;7.80
15845;BMP180;50807;52.436;13.346;2023-01-23T03:05:29;103047.00;;;7.80
15845;BMP180;50807;52.436;13.346;2023-01-23T03:06:00;103049.00;;;7.80
15845;BMP180;50807;52.436;13.346;2023-01-23T03:06:35;103044.00;;;7.70
15845;BMP180;50807;52.436;13.346;2023-01-23T03:07:07;103052.00;;;7.80
15845;BMP180;50807;52.436;13.346;2023-01-23T03:07:38;103047.00;;;7.80
15845;BMP180;50807;52.436;13.346;2023-01-23T03:08:09;103052.00;;;7.80